sensor_id;sensor_type;location;lat;lon;timestamp;P1;durP1;ratioP1;P2;durP2;ratioP2
53903;SDS011;39812;52.430;16.936;2022-12-19T00:00:17;64.13;;;27.30;;
53903;SDS011;39812;52.430;16.936;2022-12-19T00:02:43;70.50;;;26.38;;
53903;SDS011;39812;52.430;16.936;2022-12-19T00:05:08;64.07;;;28.25;;
53903;SDS011;39812;52.430;16.936;2022-12-19T00:07:34;60.13;;;23.52;;
53903;SDS011;39812;52.430;16.936;2022-12-19T00:09:59;76.75;;;28.95;;
53903;SDS011;39812;52.430;16.936;2022-12-19T00:12:25;51.28;;;21.88;;
53903;SDS011;39812;52.430;16.936;2022-12-19T00:14:51;58.53;;;23.92;;
53903;SDS011;39812;52.430;16.936;2022-12-19T00:17:16;60.45;;;24.27;;
53903;SDS011;39812;52.430;16.936;2022-12-19T00:19:42;47.42;;;23.75;;
53903;SDS011;39812;52.430;16.936;2022-12-19T00:22:07;61.55;;;21.95;;
53903;SDS011;39812;52.430;16.936;2022-12-19T00:24:33;49.35;;;21.60;;
53903;SDS011;39812;52.430;16.936;2022-12-19T00:26:58;68.90;;;25.95;;
53903;SDS011;39812;52.430;16.936;2022-12-19T00:29:24;59.13;;;24.80;;
53903;SDS011;39812;52.430;16.936;2022-12-19T00:31:49;56.75;;;20.95;;
53903;SDS011;39812;52.430;16.936;2022-12-19T00:34:15;45.50;;;21.25;;
53903;SDS011;39812;52.430;16.936;2022-12-19T00:36:41;65.97;;;24.60;;
53903;SDS011;39812;52.430;16.936;2022-12-19T00:39:06;64.47;;;25.77;;
53903;SDS011;39812;52.430;16.936;2022-12-19T00:41:35;52.83;;;23.30;;
53903;SDS011;39812;52.430;16.936;2022-12-19T00:44:03;61.30;;;26.13;;
53903;SDS011;39812;52.430;16.936;2022-12-19T00:46:30;45.97;;;20.98;;
53903;SDS011;39812;52.430;16.936;2022-12-19T00:48:57;57.53;;;24.70;;
53903;SDS011;39812;52.430;16.936;2022-12-19T00:51:25;45.17;;;21.63;;
53903;SDS011;39812;52.430;16.936;2022-12-19T00:53:53;66.93;;;28.13;;
53903;SDS011;39812;52.430;16.936;2022-12-19T00:56:30;42.22;;;22.85;;
53903;SDS011;39812;52.430;16.936;2022-12-19T00:58:57;54.83;;;20.75;;
53903;SDS011;39812;52.430;16.936;2022-12-19T01:01:27;56.28;;;25.50;;
53903;SDS011;39812;52.430;16.936;2022-12-19T01:03:56;42.83;;;19.63;;
53903;SDS011;39812;52.430;16.936;2022-12-19T01:06:22;48.78;;;21.23;;
53903;SDS011;39812;52.430;16.936;2022-12-19T01:08:47;44.65;;;17.70;;
53903;SDS011;39812;52.430;16.936;2022-12-19T01:11:13;47.33;;;22.08;;
53903;SDS011;39812;52.430;16.936;2022-12-19T01:13:39;56.70;;;23.80;;
53903;SDS011;39812;52.430;16.936;2022-12-19T01:16:05;60.83;;;23.23;;
53903;SDS011;39812;52.430;16.936;2022-12-19T01:18:33;65.13;;;26.00;;
53903;SDS011;39812;52.430;16.936;2022-12-19T01:21:00;46.83;;;23.13;;
53903;SDS011;39812;52.430;16.936;2022-12-19T01:23:28;49.33;;;20.00;;
53903;SDS011;39812;52.430;16.936;2022-12-19T01:25:54;46.78;;;21.42;;
53903;SDS011;39812;52.430;16.936;2022-12-19T01:28:20;50.92;;;23.10;;
53903;SDS011;39812;52.430;16.936;2022-12-19T01:30:46;47.85;;;21.38;;
53903;SDS011;39812;52.430;16.936;2022-12-19T01:33:12;57.05;;;22.73;;
53903;SDS011;39812;52.430;16.936;2022-12-19T01:35:40;61.38;;;21.92;;
53903;SDS011;39812;52.430;16.936;2022-12-19T01:38:09;54.67;;;20.05;;
53903;SDS011;39812;52.430;16.936;2022-12-19T01:40:37;69.05;;;25.10;;
53903;SDS011;39812;52.430;16.936;2022-12-19T01:43:03;58.15;;;26.67;;
53903;SDS011;39812;52.430;16.936;2022-12-19T01:45:30;61.08;;;24.38;;
53903;SDS011;39812;52.430;16.936;2022-12-19T01:48:06;55.67;;;22.20;;
53903;SDS011;39812;52.430;16.936;2022-12-19T01:53:21;49.10;;;21.88;;
53903;SDS011;39812;52.430;16.936;2022-12-19T01:55:50;59.42;;;22.77;;
53903;SDS011;39812;52.430;16.936;2022-12-19T01:58:16;60.40;;;26.10;;
53903;SDS011;39812;52.430;16.936;2022-12-19T02:00:43;56.75;;;23.15;;
53903;SDS011;39812;52.430;16.936;2022-12-19T02:03:10;40.45;;;19.02;;
53903;SDS011;39812;52.430;16.936;2022-12-19T02:05:50;53.55;;;22.45;;
53903;SDS011;39812;52.430;16.936;2022-12-19T02:08:17;53.22;;;21.92;;
53903;SDS011;39812;52.430;16.936;2022-12-19T02:10:43;54.75;;;20.77;;
53903;SDS011;39812;52.430;16.936;2022-12-19T02:13:08;62.38;;;24.27;;
53903;SDS011;39812;52.430;16.936;2022-12-19T02:15:40;55.80;;;23.60;;
53903;SDS011;39812;52.430;16.936;2022-12-19T02:18:22;56.65;;;23.58;;
53903;SDS011;39812;52.430;16.936;2022-12-19T02:32:20;48.42;;;19.60;;
53903;SDS011;39812;52.430;16.936;2022-12-19T02:34:55;56.00;;;23.25;;
53903;SDS011;39812;52.430;16.936;2022-12-19T02:37:31;47.20;;;20.38;;
53903;SDS011;39812;52.430;16.936;2022-12-19T02:42:44;61.38;;;27.45;;
53903;SDS011;39812;52.430;16.936;2022-12-19T02:45:14;46.85;;;23.08;;
53903;SDS011;39812;52.430;16.936;2022-12-19T02:47:41;49.55;;;22.50;;
53903;SDS011;39812;52.430;16.936;2022-12-19T02:50:08;66.15;;;27.27;;
53903;SDS011;39812;52.430;16.936;2022-12-19T02:55:05;56.97;;;24.05;;
53903;SDS011;39812;52.430;16.936;2022-12-19T03:00:24;60.50;;;24.02;;
53903;SDS011;39812;52.430;16.936;2022-12-19T03:05:27;56.92;;;25.17;;
53903;SDS011;39812;52.430;16.936;2022-12-19T03:08:25;52.78;;;25.00;;
53903;SDS011;39812;52.430;16.936;2022-12-19T03:11:03;52.83;;;23.00;;
53903;SDS011;39812;52.430;16.936;2022-12-19T03:13:36;46.63;;;22.85;;
53903;SDS011;39812;52.430;16.936;2022-12-19T03:16:07;55.58;;;24.83;;
53903;SDS011;39812;52.430;16.936;2022-12-19T03:18:34;52.42;;;23.77;;
53903;SDS011;39812;52.430;16.936;2022-12-19T03:23:41;39.28;;;19.77;;
53903;SDS011;39812;52.430;16.936;2022-12-19T03:26:13;41.58;;;20.88;;
53903;SDS011;39812;52.430;16.936;2022-12-19T03:31:23;50.38;;;22.48;;
53903;SDS011;39812;52.430;16.936;2022-12-19T03:33:55;65.55;;;23.92;;
53903;SDS011;39812;52.430;16.936;2022-12-19T03:36:26;61.15;;;26.38;;
53903;SDS011;39812;52.430;16.936;2022-12-19T03:38:57;40.33;;;20.63;;
53903;SDS011;39812;52.430;16.936;2022-12-19T03:41:25;41.58;;;22.50;;
53903;SDS011;39812;52.430;16.936;2022-12-19T03:44:10;45.72;;;19.88;;
53903;SDS011;39812;52.430;16.936;2022-12-19T03:46:38;44.25;;;18.85;;
53903;SDS011;39812;52.430;16.936;2022-12-19T03:49:08;60.65;;;21.23;;
53903;SDS011;39812;52.430;16.936;2022-12-19T03:54:26;58.40;;;26.50;;
53903;SDS011;39812;52.430;16.936;2022-12-19T03:59:42;48.00;;;21.33;;
53903;SDS011;39812;52.430;16.936;2022-12-19T04:02:14;66.40;;;25.83;;
53903;SDS011;39812;52.430;16.936;2022-12-19T04:04:42;43.10;;;17.95;;
53903;SDS011;39812;52.430;16.936;2022-12-19T04:07:15;42.70;;;20.48;;
53903;SDS011;39812;52.430;16.936;2022-12-19T04:09:42;48.20;;;18.63;;
53903;SDS011;39812;52.430;16.936;2022-12-19T04:12:13;47.53;;;20.85;;
53903;SDS011;39812;52.430;16.936;2022-12-19T04:14:42;39.72;;;20.42;;
53903;SDS011;39812;52.430;16.936;2022-12-19T04:19:51;44.38;;;18.48;;
53903;SDS011;39812;52.430;16.936;2022-12-19T04:22:32;52.33;;;18.55;;
53903;SDS011;39812;52.430;16.936;2022-12-19T04:25:02;31.83;;;15.53;;
53903;SDS011;39812;52.430;16.936;2022-12-19T04:27:33;37.47;;;15.30;;
53903;SDS011;39812;52.430;16.936;2022-12-19T04:30:02;43.55;;;21.00;;
53903;SDS011;39812;52.430;16.936;2022-12-19T04:32:28;43.25;;;18.40;;
53903;SDS011;39812;52.430;16.936;2022-12-19T04:34:58;54.47;;;16.88;;
53903;SDS011;39812;52.430;16.936;2022-12-19T04:37:23;41.78;;;19.02;;
53903;SDS011;39812;52.430;16.936;2022-12-19T04:39:49;44.42;;;20.20;;
53903;SDS011;39812;52.430;16.936;2022-12-19T04:42:15;48.33;;;19.00;;
53903;SDS011;39812;52.430;16.936;2022-12-19T04:44:40;40.20;;;18.30;;
53903;SDS011;39812;52.430;16.936;2022-12-19T04:47:06;42.40;;;18.48;;
53903;SDS011;39812;52.430;16.936;2022-12-19T04:49:31;29.25;;;14.52;;
53903;SDS011;39812;52.430;16.936;2022-12-19T04:51:57;31.92;;;15.38;;
53903;SDS011;39812;52.430;16.936;2022-12-19T04:54:23;43.13;;;18.95;;
53903;SDS011;39812;52.430;16.936;2022-12-19T04:56:48;33.67;;;15.52;;
53903;SDS011;39812;52.430;16.936;2022-12-19T04:59:14;34.40;;;16.05;;
53903;SDS011;39812;52.430;16.936;2022-12-19T05:01:39;33.53;;;18.58;;
53903;SDS011;39812;52.430;16.936;2022-12-19T05:04:05;64.93;;;18.15;;
53903;SDS011;39812;52.430;16.936;2022-12-19T05:06:30;32.63;;;15.23;;
53903;SDS011;39812;52.430;16.936;2022-12-19T05:08:56;46.20;;;15.60;;
53903;SDS011;39812;52.430;16.936;2022-12-19T05:11:22;39.72;;;15.57;;
53903;SDS011;39812;52.430;16.936;2022-12-19T05:13:48;50.55;;;20.42;;
53903;SDS011;39812;52.430;16.936;2022-12-19T05:16:14;34.08;;;17.90;;
53903;SDS011;39812;52.430;16.936;2022-12-19T05:18:40;37.15;;;14.88;;
53903;SDS011;39812;52.430;16.936;2022-12-19T05:21:06;34.95;;;17.80;;
53903;SDS011;39812;52.430;16.936;2022-12-19T05:23:31;41.63;;;16.10;;
53903;SDS011;39812;52.430;16.936;2022-12-19T05:25:58;38.70;;;15.70;;
53903;SDS011;39812;52.430;16.936;2022-12-19T05:28:24;35.80;;;15.35;;
53903;SDS011;39812;52.430;16.936;2022-12-19T05:30:50;30.45;;;15.93;;
53903;SDS011;39812;52.430;16.936;2022-12-19T05:33:15;41.97;;;15.23;;
53903;SDS011;39812;52.430;16.936;2022-12-19T05:35:41;43.20;;;17.75;;
53903;SDS011;39812;52.430;16.936;2022-12-19T05:38:06;44.92;;;15.23;;
53903;SDS011;39812;52.430;16.936;2022-12-19T05:40:32;44.63;;;18.98;;
53903;SDS011;39812;52.430;16.936;2022-12-19T05:42:58;53.17;;;17.70;;
53903;SDS011;39812;52.430;16.936;2022-12-19T05:45:23;36.20;;;14.50;;
53903;SDS011;39812;52.430;16.936;2022-12-19T05:47:49;39.72;;;14.90;;
53903;SDS011;39812;52.430;16.936;2022-12-19T05:50:14;48.95;;;15.48;;
53903;SDS011;39812;52.430;16.936;2022-12-19T05:52:41;44.83;;;17.58;;
53903;SDS011;39812;52.430;16.936;2022-12-19T05:55:07;23.77;;;11.10;;
53903;SDS011;39812;52.430;16.936;2022-12-19T05:57:34;33.42;;;12.70;;
53903;SDS011;39812;52.430;16.936;2022-12-19T05:59:59;28.35;;;13.50;;
53903;SDS011;39812;52.430;16.936;2022-12-19T06:02:25;25.85;;;11.95;;
53903;SDS011;39812;52.430;16.936;2022-12-19T06:04:51;37.42;;;17.15;;
53903;SDS011;39812;52.430;16.936;2022-12-19T06:07:16;46.58;;;16.98;;
53903;SDS011;39812;52.430;16.936;2022-12-19T06:09:42;32.80;;;16.38;;
53903;SDS011;39812;52.430;16.936;2022-12-19T06:12:08;31.92;;;14.13;;
53903;SDS011;39812;52.430;16.936;2022-12-19T06:14:33;40.95;;;17.52;;
53903;SDS011;39812;52.430;16.936;2022-12-19T06:16:59;31.33;;;13.25;;
53903;SDS011;39812;52.430;16.936;2022-12-19T06:19:24;34.28;;;13.32;;
53903;SDS011;39812;52.430;16.936;2022-12-19T06:21:50;28.15;;;14.65;;
53903;SDS011;39812;52.430;16.936;2022-12-19T06:24:15;30.48;;;15.32;;
53903;SDS011;39812;52.430;16.936;2022-12-19T06:26:41;32.72;;;14.32;;
53903;SDS011;39812;52.430;16.936;2022-12-19T06:29:07;38.17;;;15.20;;
53903;SDS011;39812;52.430;16.936;2022-12-19T06:31:32;36.05;;;14.77;;
53903;SDS011;39812;52.430;16.936;2022-12-19T06:33:59;36.08;;;13.52;;
53903;SDS011;39812;52.430;16.936;2022-12-19T06:36:25;38.70;;;15.77;;
53903;SDS011;39812;52.430;16.936;2022-12-19T06:38:53;29.70;;;14.98;;
53903;SDS011;39812;52.430;16.936;2022-12-19T06:41:19;36.60;;;16.23;;
53903;SDS011;39812;52.430;16.936;2022-12-19T06:44:05;38.40;;;14.57;;
53903;SDS011;39812;52.430;16.936;2022-12-19T06:46:32;35.10;;;14.35;;
53903;SDS011;39812;52.430;16.936;2022-12-19T06:48:58;33.72;;;14.55;;
53903;SDS011;39812;52.430;16.936;2022-12-19T06:51:24;39.47;;;17.65;;
53903;SDS011;39812;52.430;16.936;2022-12-19T06:53:50;33.85;;;13.43;;
53903;SDS011;39812;52.430;16.936;2022-12-19T06:56:18;35.20;;;15.23;;
53903;SDS011;39812;52.430;16.936;2022-12-19T06:58:44;32.88;;;14.40;;
53903;SDS011;39812;52.430;16.936;2022-12-19T07:01:17;25.13;;;12.70;;
53903;SDS011;39812;52.430;16.936;2022-12-19T07:03:52;39.25;;;13.65;;
53903;SDS011;39812;52.430;16.936;2022-12-19T07:06:18;31.45;;;15.15;;
53903;SDS011;39812;52.430;16.936;2022-12-19T07:08:44;31.98;;;14.75;;
53903;SDS011;39812;52.430;16.936;2022-12-19T07:11:09;32.17;;;13.98;;
53903;SDS011;39812;52.430;16.936;2022-12-19T07:13:35;38.67;;;15.48;;
53903;SDS011;39812;52.430;16.936;2022-12-19T07:16:01;38.28;;;15.60;;
53903;SDS011;39812;52.430;16.936;2022-12-19T07:18:29;29.88;;;14.68;;
53903;SDS011;39812;52.430;16.936;2022-12-19T07:20:59;29.77;;;13.25;;
53903;SDS011;39812;52.430;16.936;2022-12-19T07:23:25;39.38;;;14.88;;
53903;SDS011;39812;52.430;16.936;2022-12-19T07:25:50;29.67;;;13.18;;
53903;SDS011;39812;52.430;16.936;2022-12-19T07:28:16;42.00;;;15.55;;
53903;SDS011;39812;52.430;16.936;2022-12-19T07:30:42;33.30;;;14.88;;
53903;SDS011;39812;52.430;16.936;2022-12-19T07:33:07;34.42;;;12.90;;
53903;SDS011;39812;52.430;16.936;2022-12-19T07:35:34;28.75;;;15.73;;
53903;SDS011;39812;52.430;16.936;2022-12-19T07:38:03;40.22;;;16.77;;
53903;SDS011;39812;52.430;16.936;2022-12-19T07:40:30;40.38;;;14.60;;
53903;SDS011;39812;52.430;16.936;2022-12-19T07:42:58;39.60;;;14.27;;
53903;SDS011;39812;52.430;16.936;2022-12-19T07:45:24;35.55;;;14.25;;
53903;SDS011;39812;52.430;16.936;2022-12-19T07:47:50;27.95;;;12.93;;
53903;SDS011;39812;52.430;16.936;2022-12-19T07:50:16;33.70;;;15.60;;
53903;SDS011;39812;52.430;16.936;2022-12-19T07:52:41;27.63;;;13.52;;
53903;SDS011;39812;52.430;16.936;2022-12-19T07:55:07;37.85;;;15.18;;
53903;SDS011;39812;52.430;16.936;2022-12-19T07:57:33;39.28;;;15.18;;
53903;SDS011;39812;52.430;16.936;2022-12-19T07:59:58;38.92;;;16.67;;
53903;SDS011;39812;52.430;16.936;2022-12-19T08:02:24;35.40;;;13.88;;
53903;SDS011;39812;52.430;16.936;2022-12-19T08:04:49;36.90;;;14.40;;
53903;SDS011;39812;52.430;16.936;2022-12-19T08:07:15;31.52;;;11.02;;
53903;SDS011;39812;52.430;16.936;2022-12-19T08:09:41;34.88;;;12.43;;
53903;SDS011;39812;52.430;16.936;2022-12-19T08:12:06;33.95;;;13.02;;
53903;SDS011;39812;52.430;16.936;2022-12-19T08:14:32;33.80;;;15.30;;
53903;SDS011;39812;52.430;16.936;2022-12-19T08:16:57;30.58;;;13.15;;
53903;SDS011;39812;52.430;16.936;2022-12-19T08:19:23;36.33;;;15.60;;
53903;SDS011;39812;52.430;16.936;2022-12-19T08:21:50;37.10;;;15.50;;
53903;SDS011;39812;52.430;16.936;2022-12-19T08:24:16;33.10;;;14.73;;
53903;SDS011;39812;52.430;16.936;2022-12-19T08:26:41;43.25;;;17.85;;
53903;SDS011;39812;52.430;16.936;2022-12-19T08:29:07;29.35;;;14.10;;
53903;SDS011;39812;52.430;16.936;2022-12-19T08:31:32;40.70;;;13.65;;
53903;SDS011;39812;52.430;16.936;2022-12-19T08:33:58;26.25;;;11.93;;
53903;SDS011;39812;52.430;16.936;2022-12-19T08:36:24;36.55;;;15.80;;
53903;SDS011;39812;52.430;16.936;2022-12-19T08:38:50;27.58;;;12.75;;
53903;SDS011;39812;52.430;16.936;2022-12-19T08:41:16;40.58;;;17.35;;
53903;SDS011;39812;52.430;16.936;2022-12-19T08:43:42;34.58;;;13.73;;
53903;SDS011;39812;52.430;16.936;2022-12-19T08:46:11;35.60;;;13.50;;
53903;SDS011;39812;52.430;16.936;2022-12-19T08:48:37;44.28;;;17.98;;
53903;SDS011;39812;52.430;16.936;2022-12-19T08:51:04;26.23;;;12.43;;
53903;SDS011;39812;52.430;16.936;2022-12-19T08:53:32;36.17;;;15.35;;
53903;SDS011;39812;52.430;16.936;2022-12-19T08:56:00;30.45;;;13.30;;
53903;SDS011;39812;52.430;16.936;2022-12-19T08:58:31;28.08;;;12.95;;
53903;SDS011;39812;52.430;16.936;2022-12-19T09:00:58;30.17;;;14.75;;
53903;SDS011;39812;52.430;16.936;2022-12-19T09:03:25;39.53;;;13.27;;
53903;SDS011;39812;52.430;16.936;2022-12-19T09:05:57;32.42;;;12.65;;
53903;SDS011;39812;52.430;16.936;2022-12-19T09:08:23;27.75;;;12.65;;
53903;SDS011;39812;52.430;16.936;2022-12-19T09:10:55;31.98;;;13.13;;
53903;SDS011;39812;52.430;16.936;2022-12-19T09:13:26;29.00;;;12.73;;
53903;SDS011;39812;52.430;16.936;2022-12-19T09:18:49;28.15;;;13.13;;
53903;SDS011;39812;52.430;16.936;2022-12-19T09:21:17;29.33;;;13.00;;
53903;SDS011;39812;52.430;16.936;2022-12-19T09:23:48;35.05;;;13.75;;
53903;SDS011;39812;52.430;16.936;2022-12-19T09:26:15;33.40;;;13.27;;
53903;SDS011;39812;52.430;16.936;2022-12-19T09:28:41;39.33;;;13.32;;
53903;SDS011;39812;52.430;16.936;2022-12-19T09:31:09;31.42;;;13.27;;
53903;SDS011;39812;52.430;16.936;2022-12-19T09:33:36;33.75;;;12.77;;
53903;SDS011;39812;52.430;16.936;2022-12-19T09:36:01;31.90;;;12.25;;
53903;SDS011;39812;52.430;16.936;2022-12-19T09:38:28;31.65;;;13.35;;
53903;SDS011;39812;52.430;16.936;2022-12-19T09:49:25;36.33;;;12.65;;
53903;SDS011;39812;52.430;16.936;2022-12-19T09:52:07;29.45;;;11.05;;
53903;SDS011;39812;52.430;16.936;2022-12-19T09:57:56;28.05;;;11.60;;
53903;SDS011;39812;52.430;16.936;2022-12-19T10:00:41;32.47;;;13.75;;
53903;SDS011;39812;52.430;16.936;2022-12-19T10:05:56;30.73;;;12.43;;
53903;SDS011;39812;52.430;16.936;2022-12-19T10:08:39;35.00;;;13.05;;
53903;SDS011;39812;52.430;16.936;2022-12-19T10:16:23;41.78;;;14.32;;
53903;SDS011;39812;52.430;16.936;2022-12-19T10:19:04;33.13;;;13.02;;
53903;SDS011;39812;52.430;16.936;2022-12-19T10:24:40;29.55;;;12.00;;
53903;SDS011;39812;52.430;16.936;2022-12-19T10:27:40;29.13;;;12.88;;
53903;SDS011;39812;52.430;16.936;2022-12-19T10:30:15;28.90;;;11.48;;
53903;SDS011;39812;52.430;16.936;2022-12-19T10:35:14;30.58;;;12.68;;
53903;SDS011;39812;52.430;16.936;2022-12-19T10:37:51;32.60;;;14.23;;
53903;SDS011;39812;52.430;16.936;2022-12-19T10:45:45;29.08;;;12.35;;
53903;SDS011;39812;52.430;16.936;2022-12-19T10:48:15;30.77;;;12.20;;
53903;SDS011;39812;52.430;16.936;2022-12-19T10:50:43;34.55;;;13.38;;
53903;SDS011;39812;52.430;16.936;2022-12-19T10:53:09;32.60;;;14.07;;
53903;SDS011;39812;52.430;16.936;2022-12-19T10:55:46;28.15;;;12.93;;
53903;SDS011;39812;52.430;16.936;2022-12-19T11:01:28;37.58;;;13.32;;
53903;SDS011;39812;52.430;16.936;2022-12-19T11:03:41;36.47;;;14.55;;
53903;SDS011;39812;52.430;16.936;2022-12-19T11:11:49;36.67;;;14.82;;
53903;SDS011;39812;52.430;16.936;2022-12-19T11:14:32;36.67;;;12.80;;
53903;SDS011;39812;52.430;16.936;2022-12-19T11:16:59;37.20;;;14.75;;
53903;SDS011;39812;52.430;16.936;2022-12-19T11:19:32;40.17;;;15.05;;
53903;SDS011;39812;52.430;16.936;2022-12-19T11:22:06;32.40;;;11.63;;
53903;SDS011;39812;52.430;16.936;2022-12-19T11:24:41;34.28;;;12.50;;
53903;SDS011;39812;52.430;16.936;2022-12-19T11:27:29;34.38;;;12.57;;
53903;SDS011;39812;52.430;16.936;2022-12-19T11:32:47;27.27;;;12.55;;
53903;SDS011;39812;52.430;16.936;2022-12-19T11:35:30;33.60;;;13.85;;
53903;SDS011;39812;52.430;16.936;2022-12-19T11:37:57;28.65;;;12.27;;
53903;SDS011;39812;52.430;16.936;2022-12-19T11:43:14;30.25;;;11.55;;
53903;SDS011;39812;52.430;16.936;2022-12-19T11:45:59;29.33;;;10.57;;
53903;SDS011;39812;52.430;16.936;2022-12-19T11:53:41;30.05;;;11.88;;
53903;SDS011;39812;52.430;16.936;2022-12-19T11:56:17;25.73;;;12.45;;
53903;SDS011;39812;52.430;16.936;2022-12-19T11:59:00;24.77;;;12.25;;
53903;SDS011;39812;52.430;16.936;2022-12-19T12:06:59;28.20;;;12.32;;
53903;SDS011;39812;52.430;16.936;2022-12-19T12:18:11;26.98;;;12.13;;
53903;SDS011;39812;52.430;16.936;2022-12-19T12:21:17;30.15;;;12.18;;
53903;SDS011;39812;52.430;16.936;2022-12-19T12:26:34;34.35;;;12.23;;
53903;SDS011;39812;52.430;16.936;2022-12-19T12:32:00;27.73;;;11.95;;
53903;SDS011;39812;52.430;16.936;2022-12-19T12:34:56;33.53;;;12.07;;
53903;SDS011;39812;52.430;16.936;2022-12-19T12:37:43;39.58;;;11.80;;
53903;SDS011;39812;52.430;16.936;2022-12-19T12:45:37;30.90;;;13.07;;
53903;SDS011;39812;52.430;16.936;2022-12-19T12:48:11;31.52;;;12.38;;
53903;SDS011;39812;52.430;16.936;2022-12-19T12:50:55;25.35;;;10.60;;
53903;SDS011;39812;52.430;16.936;2022-12-19T12:53:25;29.65;;;12.05;;
53903;SDS011;39812;52.430;16.936;2022-12-19T12:55:57;31.23;;;13.23;;
53903;SDS011;39812;52.430;16.936;2022-12-19T12:58:41;30.13;;;13.90;;
53903;SDS011;39812;52.430;16.936;2022-12-19T13:01:08;34.40;;;13.70;;
53903;SDS011;39812;52.430;16.936;2022-12-19T13:03:36;30.48;;;13.77;;
53903;SDS011;39812;52.430;16.936;2022-12-19T13:06:05;32.45;;;13.38;;
53903;SDS011;39812;52.430;16.936;2022-12-19T13:08:48;32.97;;;12.50;;
53903;SDS011;39812;52.430;16.936;2022-12-19T13:14:03;33.45;;;14.25;;
53903;SDS011;39812;52.430;16.936;2022-12-19T13:24:41;29.40;;;11.75;;
53903;SDS011;39812;52.430;16.936;2022-12-19T13:33:10;28.55;;;12.60;;
53903;SDS011;39812;52.430;16.936;2022-12-19T13:45:50;25.05;;;11.25;;
53903;SDS011;39812;52.430;16.936;2022-12-19T13:48:41;30.45;;;12.90;;
53903;SDS011;39812;52.430;16.936;2022-12-19T13:51:10;31.30;;;12.02;;
53903;SDS011;39812;52.430;16.936;2022-12-19T13:53:38;31.70;;;10.15;;
53903;SDS011;39812;52.430;16.936;2022-12-19T13:56:10;33.85;;;13.40;;
53903;SDS011;39812;52.430;16.936;2022-12-19T13:58:53;29.83;;;12.63;;
53903;SDS011;39812;52.430;16.936;2022-12-19T14:01:24;25.77;;;11.88;;
53903;SDS011;39812;52.430;16.936;2022-12-19T14:03:53;40.78;;;12.93;;
53903;SDS011;39812;52.430;16.936;2022-12-19T14:06:25;27.73;;;10.30;;
53903;SDS011;39812;52.430;16.936;2022-12-19T14:08:54;32.53;;;12.05;;
53903;SDS011;39812;52.430;16.936;2022-12-19T14:11:27;28.00;;;11.63;;
53903;SDS011;39812;52.430;16.936;2022-12-19T14:13:55;29.48;;;11.85;;
53903;SDS011;39812;52.430;16.936;2022-12-19T14:16:42;20.20;;;9.20;;
53903;SDS011;39812;52.430;16.936;2022-12-19T14:19:16;34.42;;;12.95;;
53903;SDS011;39812;52.430;16.936;2022-12-19T14:21:43;30.85;;;11.65;;
53903;SDS011;39812;52.430;16.936;2022-12-19T14:24:10;29.20;;;11.57;;
53903;SDS011;39812;52.430;16.936;2022-12-19T14:26:39;32.90;;;12.85;;
53903;SDS011;39812;52.430;16.936;2022-12-19T14:29:09;26.02;;;12.55;;
53903;SDS011;39812;52.430;16.936;2022-12-19T14:31:45;33.95;;;13.88;;
53903;SDS011;39812;52.430;16.936;2022-12-19T14:34:19;31.85;;;13.20;;
53903;SDS011;39812;52.430;16.936;2022-12-19T14:36:48;26.55;;;10.20;;
53903;SDS011;39812;52.430;16.936;2022-12-19T14:39:18;22.85;;;11.13;;
53903;SDS011;39812;52.430;16.936;2022-12-19T14:41:47;28.13;;;13.15;;
53903;SDS011;39812;52.430;16.936;2022-12-19T14:44:43;36.47;;;14.32;;
53903;SDS011;39812;52.430;16.936;2022-12-19T14:47:21;31.92;;;12.65;;
53903;SDS011;39812;52.430;16.936;2022-12-19T14:49:49;32.40;;;12.45;;
53903;SDS011;39812;52.430;16.936;2022-12-19T14:55:11;23.95;;;11.60;;
53903;SDS011;39812;52.430;16.936;2022-12-19T14:57:47;25.48;;;11.88;;
53903;SDS011;39812;52.430;16.936;2022-12-19T15:02:56;28.50;;;11.57;;
53903;SDS011;39812;52.430;16.936;2022-12-19T15:05:26;26.58;;;11.10;;
53903;SDS011;39812;52.430;16.936;2022-12-19T15:07:54;32.75;;;12.02;;
53903;SDS011;39812;52.430;16.936;2022-12-19T15:10:23;27.75;;;13.18;;
53903;SDS011;39812;52.430;16.936;2022-12-19T15:18:36;32.25;;;12.40;;
53903;SDS011;39812;52.430;16.936;2022-12-19T15:21:08;24.02;;;10.38;;
53903;SDS011;39812;52.430;16.936;2022-12-19T15:23:38;30.08;;;12.23;;
53903;SDS011;39812;52.430;16.936;2022-12-19T15:26:05;36.97;;;14.38;;
53903;SDS011;39812;52.430;16.936;2022-12-19T15:28:40;30.40;;;12.93;;
53903;SDS011;39812;52.430;16.936;2022-12-19T15:31:41;28.58;;;11.18;;
53903;SDS011;39812;52.430;16.936;2022-12-19T15:36:51;29.88;;;11.93;;
53903;SDS011;39812;52.430;16.936;2022-12-19T15:39:18;32.08;;;12.63;;
53903;SDS011;39812;52.430;16.936;2022-12-19T15:41:45;29.85;;;13.02;;
53903;SDS011;39812;52.430;16.936;2022-12-19T15:44:33;27.30;;;11.57;;
53903;SDS011;39812;52.430;16.936;2022-12-19T15:47:09;37.28;;;13.10;;
53903;SDS011;39812;52.430;16.936;2022-12-19T15:50:00;29.58;;;12.55;;
53903;SDS011;39812;52.430;16.936;2022-12-19T15:52:38;31.90;;;12.43;;
53903;SDS011;39812;52.430;16.936;2022-12-19T15:55:04;29.60;;;11.73;;
53903;SDS011;39812;52.430;16.936;2022-12-19T15:57:34;29.17;;;11.77;;
53903;SDS011;39812;52.430;16.936;2022-12-19T16:00:04;30.90;;;12.55;;
53903;SDS011;39812;52.430;16.936;2022-12-19T16:02:40;32.85;;;12.27;;
53903;SDS011;39812;52.430;16.936;2022-12-19T16:05:05;36.65;;;12.98;;
53903;SDS011;39812;52.430;16.936;2022-12-19T16:07:31;25.08;;;11.30;;
53903;SDS011;39812;52.430;16.936;2022-12-19T16:09:57;25.63;;;12.68;;
53903;SDS011;39812;52.430;16.936;2022-12-19T16:12:23;32.35;;;13.00;;
53903;SDS011;39812;52.430;16.936;2022-12-19T16:14:54;33.78;;;14.82;;
53903;SDS011;39812;52.430;16.936;2022-12-19T16:17:22;32.05;;;12.95;;
53903;SDS011;39812;52.430;16.936;2022-12-19T16:19:49;28.92;;;12.45;;
53903;SDS011;39812;52.430;16.936;2022-12-19T16:22:23;33.42;;;13.73;;
53903;SDS011;39812;52.430;16.936;2022-12-19T16:24:50;28.58;;;12.45;;
53903;SDS011;39812;52.430;16.936;2022-12-19T16:27:22;22.17;;;10.32;;
53903;SDS011;39812;52.430;16.936;2022-12-19T16:29:52;28.27;;;12.25;;
53903;SDS011;39812;52.430;16.936;2022-12-19T16:32:19;31.00;;;13.50;;
53903;SDS011;39812;52.430;16.936;2022-12-19T16:34:47;27.75;;;12.85;;
53903;SDS011;39812;52.430;16.936;2022-12-19T16:37:14;34.95;;;11.95;;
53903;SDS011;39812;52.430;16.936;2022-12-19T16:39:39;30.63;;;12.70;;
53903;SDS011;39812;52.430;16.936;2022-12-19T16:42:12;32.33;;;12.45;;
53903;SDS011;39812;52.430;16.936;2022-12-19T16:44:39;34.55;;;14.45;;
53903;SDS011;39812;52.430;16.936;2022-12-19T16:47:09;31.98;;;12.85;;
53903;SDS011;39812;52.430;16.936;2022-12-19T16:49:37;28.35;;;13.73;;
53903;SDS011;39812;52.430;16.936;2022-12-19T16:52:02;25.25;;;11.98;;
53903;SDS011;39812;52.430;16.936;2022-12-19T16:54:28;28.70;;;11.80;;
53903;SDS011;39812;52.430;16.936;2022-12-19T16:56:53;30.45;;;13.52;;
53903;SDS011;39812;52.430;16.936;2022-12-19T16:59:20;31.10;;;12.50;;